This is the latest recevied weather packets stored in our database for station/object SV9TNF-1. If no packets are shown the sender has not sent any weather packets the latest 10 day(s).
| Time | Temp. | Humidity | Pressure | Rain* | Wind** | Luminosity | Snow |
|---|---|---|---|---|---|---|---|
| 1777800840 | 16.67° C | 52% | 1004.1 hPa | 0 mm | 12.52 m/s, 318° | - | - |
| 1777800540 | 16.67° C | 52% | 1004.1 hPa | 0 mm | 14.31 m/s, 330° | - | - |
| 1777800240 | 17.22° C | 51% | 1004.1 hPa | 0 mm | 17.43 m/s, 30° | - | - |
| 1777799940 | 15° C | 56% | 1004.1 hPa | 0 mm | 12.52 m/s, 335° | - | - |
| 1777799640 | 14.44° C | 57% | 1004.1 hPa | 0 mm | 12.07 m/s, 320° | - | - |
| 1777799340 | 15° C | 57% | 1004.1 hPa | 0 mm | 8.05 m/s, 333° | - | - |
| 1777799040 | 15.56° C | 55% | 1004.1 hPa | 0 mm | 16.09 m/s, 313° | - | - |
| 1777798740 | 16.67° C | 52% | 1004.1 hPa | 0 mm | 12.96 m/s, 323° | - | - |
| 1777798440 | 16.11° C | 51% | 1004.1 hPa | 0 mm | 8.49 m/s, 356° | - | - |
| 1777798139 | 15.56° C | 55% | 1004.1 hPa | 0 mm | 6.26 m/s, 332° | - | - |
| 1777797839 | 17.78° C | 51% | 1003.7 hPa | 0 mm | 7.15 m/s, 142° | - | - |
| 1777797539 | 16.67° C | 52% | 1003.7 hPa | 0 mm | 10.73 m/s, 329° | - | - |
| 1777797239 | 16.67° C | 51% | 1004.1 hPa | 0 mm | 6.71 m/s, 325° | - | - |
| 1777796939 | 17.22° C | 50% | 1004.1 hPa | 0 mm | 13.41 m/s, 345° | - | - |
| 1777796639 | 16.67° C | 52% | 1004.1 hPa | 0 mm | 8.94 m/s, 317° | - | - |
| 1777796339 | 17.22° C | 50% | 1004.1 hPa | 0 mm | 10.73 m/s, 326° | - | - |
| 1777796039 | 16.67° C | 50% | 1004.1 hPa | 0 mm | 13.41 m/s, 325° | - | - |
| 1777795739 | 16.11° C | 54% | 1004.1 hPa | 0 mm | 8.05 m/s, 108° | - | - |
| 1777795439 | 16.67° C | 50% | 1004.1 hPa | 0 mm | 11.18 m/s, 324° | - | - |
| 1777795139 | 16.67° C | 52% | 1004.1 hPa | 0 mm | 11.62 m/s, 354° | - | - |
| 1777794838 | 16.67° C | 53% | 1004.1 hPa | 0 mm | 11.62 m/s, 28° | - | - |
| 1777794538 | 15.56° C | 55% | 1004.1 hPa | 0 mm | 6.71 m/s, 85° | - | - |
| 1777794238 | 15.56° C | 54% | 1004.1 hPa | 0 mm | 7.6 m/s, 357° | - | - |
| 1777793938 | 16.67° C | 53% | 1004.1 hPa | 0 mm | 10.73 m/s, 346° | - | - |
| 1777793638 | 15.56° C | 55% | 1003.7 hPa | 0 mm | 4.47 m/s, 140° | - | - |
* Rain latest hour (hover to see other rain measurements)
** Current wind speed in m/s (hover to see current wind gust speed)